sensor_id;sensor_type;location;lat;lon;timestamp;P1;durP1;ratioP1;P2;durP2;ratioP2
16039;SDS011;8124;48.634;8.120;2022-07-21T00:01:14;47.33;;;42.53;;
16039;SDS011;8124;48.634;8.120;2022-07-21T00:06:17;46.63;;;41.83;;
16039;SDS011;8124;48.634;8.120;2022-07-21T00:11:20;47.50;;;42.50;;
16039;SDS011;8124;48.634;8.120;2022-07-21T00:16:24;46.28;;;41.58;;
16039;SDS011;8124;48.634;8.120;2022-07-21T00:21:27;46.70;;;41.92;;
16039;SDS011;8124;48.634;8.120;2022-07-21T00:26:30;47.17;;;42.15;;
16039;SDS011;8124;48.634;8.120;2022-07-21T00:31:35;47.08;;;42.17;;
16039;SDS011;8124;48.634;8.120;2022-07-21T00:36:38;46.88;;;42.08;;
16039;SDS011;8124;48.634;8.120;2022-07-21T00:41:41;46.58;;;41.88;;
16039;SDS011;8124;48.634;8.120;2022-07-21T00:46:45;47.15;;;42.15;;
16039;SDS011;8124;48.634;8.120;2022-07-21T00:51:49;47.78;;;42.88;;
16039;SDS011;8124;48.634;8.120;2022-07-21T00:56:52;47.95;;;42.95;;
16039;SDS011;8124;48.634;8.120;2022-07-21T01:01:56;46.70;;;41.92;;
16039;SDS011;8124;48.634;8.120;2022-07-21T01:07:00;48.78;;;43.58;;
16039;SDS011;8124;48.634;8.120;2022-07-21T01:12:04;48.35;;;43.35;;
16039;SDS011;8124;48.634;8.120;2022-07-21T01:17:09;47.50;;;42.42;;
16039;SDS011;8124;48.634;8.120;2022-07-21T01:22:14;47.65;;;42.55;;
16039;SDS011;8124;48.634;8.120;2022-07-21T01:27:17;47.90;;;42.88;;
16039;SDS011;8124;48.634;8.120;2022-07-21T01:32:20;47.33;;;42.50;;
16039;SDS011;8124;48.634;8.120;2022-07-21T01:37:28;48.55;;;43.60;;
16039;SDS011;8124;48.634;8.120;2022-07-21T01:42:32;49.08;;;43.90;;
16039;SDS011;8124;48.634;8.120;2022-07-21T01:47:35;48.65;;;43.58;;
16039;SDS011;8124;48.634;8.120;2022-07-21T01:52:39;49.20;;;44.00;;
16039;SDS011;8124;48.634;8.120;2022-07-21T01:57:42;49.40;;;44.20;;
16039;SDS011;8124;48.634;8.120;2022-07-21T02:02:45;50.75;;;45.65;;
16039;SDS011;8124;48.634;8.120;2022-07-21T02:07:50;50.08;;;44.78;;
16039;SDS011;8124;48.634;8.120;2022-07-21T02:12:53;49.30;;;44.20;;
16039;SDS011;8124;48.634;8.120;2022-07-21T02:17:55;50.15;;;44.75;;
16039;SDS011;8124;48.634;8.120;2022-07-21T02:23:00;50.25;;;44.85;;
16039;SDS011;8124;48.634;8.120;2022-07-21T02:28:03;52.63;;;44.67;;
16039;SDS011;8124;48.634;8.120;2022-07-21T02:33:06;50.05;;;44.95;;
16039;SDS011;8124;48.634;8.120;2022-07-21T02:38:11;50.00;;;44.80;;
16039;SDS011;8124;48.634;8.120;2022-07-21T02:43:14;48.97;;;43.80;;
16039;SDS011;8124;48.634;8.120;2022-07-21T02:48:18;50.08;;;44.70;;
16039;SDS011;8124;48.634;8.120;2022-07-21T02:53:22;49.67;;;44.47;;
16039;SDS011;8124;48.634;8.120;2022-07-21T02:58:26;49.90;;;44.75;;
16039;SDS011;8124;48.634;8.120;2022-07-21T03:03:30;50.25;;;44.88;;
16039;SDS011;8124;48.634;8.120;2022-07-21T03:08:37;50.47;;;45.22;;
16039;SDS011;8124;48.634;8.120;2022-07-21T03:13:40;50.25;;;44.95;;
16039;SDS011;8124;48.634;8.120;2022-07-21T03:18:43;49.40;;;44.20;;
16039;SDS011;8124;48.634;8.120;2022-07-21T03:23:47;48.85;;;43.83;;
16039;SDS011;8124;48.634;8.120;2022-07-21T03:28:50;49.53;;;44.22;;
16039;SDS011;8124;48.634;8.120;2022-07-21T03:33:54;50.70;;;45.30;;
16039;SDS011;8124;48.634;8.120;2022-07-21T03:38:58;49.95;;;44.85;;
16039;SDS011;8124;48.634;8.120;2022-07-21T03:44:01;50.78;;;45.45;;
16039;SDS011;8124;48.634;8.120;2022-07-21T03:49:04;50.35;;;45.15;;
16039;SDS011;8124;48.634;8.120;2022-07-21T03:54:08;48.67;;;43.45;;
16039;SDS011;8124;48.634;8.120;2022-07-21T03:59:11;50.58;;;44.65;;
16039;SDS011;8124;48.634;8.120;2022-07-21T04:04:14;47.65;;;42.75;;
16039;SDS011;8124;48.634;8.120;2022-07-21T04:09:18;49.03;;;43.92;;
16039;SDS011;8124;48.634;8.120;2022-07-21T04:14:21;49.13;;;44.10;;
16039;SDS011;8124;48.634;8.120;2022-07-21T04:19:26;50.15;;;44.78;;
16039;SDS011;8124;48.634;8.120;2022-07-21T04:24:30;49.97;;;44.88;;
16039;SDS011;8124;48.634;8.120;2022-07-21T04:29:33;49.88;;;44.50;;
16039;SDS011;8124;48.634;8.120;2022-07-21T04:34:36;50.20;;;45.10;;
16039;SDS011;8124;48.634;8.120;2022-07-21T04:39:40;50.17;;;44.90;;
16039;SDS011;8124;48.634;8.120;2022-07-21T04:44:48;51.28;;;45.80;;
16039;SDS011;8124;48.634;8.120;2022-07-21T04:49:51;50.30;;;45.13;;
16039;SDS011;8124;48.634;8.120;2022-07-21T04:54:56;50.85;;;45.33;;
16039;SDS011;8124;48.634;8.120;2022-07-21T04:59:59;50.25;;;44.85;;
16039;SDS011;8124;48.634;8.120;2022-07-21T05:05:04;50.10;;;44.70;;
16039;SDS011;8124;48.634;8.120;2022-07-21T05:10:10;51.08;;;44.40;;
16039;SDS011;8124;48.634;8.120;2022-07-21T05:15:14;50.20;;;44.80;;
16039;SDS011;8124;48.634;8.120;2022-07-21T05:20:19;52.15;;;45.45;;
16039;SDS011;8124;48.634;8.120;2022-07-21T05:25:23;50.90;;;45.60;;
16039;SDS011;8124;48.634;8.120;2022-07-21T05:30:26;51.53;;;45.42;;
16039;SDS011;8124;48.634;8.120;2022-07-21T05:35:29;51.20;;;45.75;;
16039;SDS011;8124;48.634;8.120;2022-07-21T05:40:33;50.35;;;45.15;;
16039;SDS011;8124;48.634;8.120;2022-07-21T05:45:36;51.45;;;45.95;;
16039;SDS011;8124;48.634;8.120;2022-07-21T05:50:39;51.33;;;46.05;;
16039;SDS011;8124;48.634;8.120;2022-07-21T05:55:43;50.45;;;45.25;;
16039;SDS011;8124;48.634;8.120;2022-07-21T06:00:47;50.60;;;45.35;;
16039;SDS011;8124;48.634;8.120;2022-07-21T06:06:09;51.60;;;46.20;;
16039;SDS011;8124;48.634;8.120;2022-07-21T06:11:16;51.10;;;45.90;;
16039;SDS011;8124;48.634;8.120;2022-07-21T06:16:20;51.28;;;45.78;;
16039;SDS011;8124;48.634;8.120;2022-07-21T06:21:23;51.63;;;46.13;;
16039;SDS011;8124;48.634;8.120;2022-07-21T06:26:27;50.25;;;45.15;;
16039;SDS011;8124;48.634;8.120;2022-07-21T06:31:30;51.78;;;46.25;;
16039;SDS011;8124;48.634;8.120;2022-07-21T06:36:33;50.85;;;45.55;;
16039;SDS011;8124;48.634;8.120;2022-07-21T06:41:37;49.25;;;43.85;;
16039;SDS011;8124;48.634;8.120;2022-07-21T06:46:46;49.65;;;44.33;;
16039;SDS011;8124;48.634;8.120;2022-07-21T06:51:49;48.38;;;43.38;;
16039;SDS011;8124;48.634;8.120;2022-07-21T06:56:53;49.42;;;44.10;;
16039;SDS011;8124;48.634;8.120;2022-07-21T07:01:56;48.78;;;43.80;;
16039;SDS011;8124;48.634;8.120;2022-07-21T07:07:00;49.63;;;44.33;;
16039;SDS011;8124;48.634;8.120;2022-07-21T07:12:05;49.28;;;44.17;;
16039;SDS011;8124;48.634;8.120;2022-07-21T07:17:30;49.47;;;44.22;;
16039;SDS011;8124;48.634;8.120;2022-07-21T07:22:33;50.53;;;45.28;;
16039;SDS011;8124;48.634;8.120;2022-07-21T07:27:37;49.83;;;44.63;;
16039;SDS011;8124;48.634;8.120;2022-07-21T07:32:40;51.58;;;46.38;;
16039;SDS011;8124;48.634;8.120;2022-07-21T07:37:44;50.60;;;45.25;;
16039;SDS011;8124;48.634;8.120;2022-07-21T07:42:49;50.97;;;45.50;;
16039;SDS011;8124;48.634;8.120;2022-07-21T07:47:52;50.92;;;45.05;;
16039;SDS011;8124;48.634;8.120;2022-07-21T07:52:55;50.28;;;45.00;;
16039;SDS011;8124;48.634;8.120;2022-07-21T07:57:59;51.42;;;45.83;;
16039;SDS011;8124;48.634;8.120;2022-07-21T08:03:03;50.90;;;45.65;;
16039;SDS011;8124;48.634;8.120;2022-07-21T08:08:06;50.95;;;45.38;;
16039;SDS011;8124;48.634;8.120;2022-07-21T08:13:10;52.15;;;46.47;;
16039;SDS011;8124;48.634;8.120;2022-07-21T08:18:14;50.55;;;45.25;;
16039;SDS011;8124;48.634;8.120;2022-07-21T08:23:18;50.47;;;45.28;;
16039;SDS011;8124;48.634;8.120;2022-07-21T08:28:22;50.63;;;45.33;;
16039;SDS011;8124;48.634;8.120;2022-07-21T08:33:25;51.05;;;45.75;;
16039;SDS011;8124;48.634;8.120;2022-07-21T08:38:28;51.65;;;46.22;;
16039;SDS011;8124;48.634;8.120;2022-07-21T08:43:32;50.78;;;45.55;;
16039;SDS011;8124;48.634;8.120;2022-07-21T08:48:36;50.65;;;45.30;;
16039;SDS011;8124;48.634;8.120;2022-07-21T08:53:39;50.33;;;45.13;;
16039;SDS011;8124;48.634;8.120;2022-07-21T08:58:43;50.10;;;44.85;;
16039;SDS011;8124;48.634;8.120;2022-07-21T09:03:46;49.70;;;44.60;;
16039;SDS011;8124;48.634;8.120;2022-07-21T09:08:50;47.97;;;43.08;;
16039;SDS011;8124;48.634;8.120;2022-07-21T09:14:05;47.30;;;42.40;;
16039;SDS011;8124;48.634;8.120;2022-07-21T09:19:15;47.17;;;42.38;;
16039;SDS011;8124;48.634;8.120;2022-07-21T09:24:21;46.65;;;41.92;;
16039;SDS011;8124;48.634;8.120;2022-07-21T09:29:33;48.28;;;43.38;;
16039;SDS011;8124;48.634;8.120;2022-07-21T09:34:38;47.55;;;42.55;;
16039;SDS011;8124;48.634;8.120;2022-07-21T09:39:42;47.25;;;42.35;;
16039;SDS011;8124;48.634;8.120;2022-07-21T09:44:48;47.58;;;42.53;;
16039;SDS011;8124;48.634;8.120;2022-07-21T09:49:53;46.67;;;41.88;;
16039;SDS011;8124;48.634;8.120;2022-07-21T09:55:17;47.08;;;42.13;;
16039;SDS011;8124;48.634;8.120;2022-07-21T10:00:21;47.45;;;42.55;;
16039;SDS011;8124;48.634;8.120;2022-07-21T10:05:25;47.90;;;43.00;;
16039;SDS011;8124;48.634;8.120;2022-07-21T10:10:33;47.40;;;42.42;;
16039;SDS011;8124;48.634;8.120;2022-07-21T10:15:57;47.17;;;42.38;;
16039;SDS011;8124;48.634;8.120;2022-07-21T10:21:02;47.15;;;42.30;;
16039;SDS011;8124;48.634;8.120;2022-07-21T10:26:12;47.55;;;42.78;;
16039;SDS011;8124;48.634;8.120;2022-07-21T10:31:18;46.80;;;41.90;;
16039;SDS011;8124;48.634;8.120;2022-07-21T10:36:41;47.47;;;42.47;;
16039;SDS011;8124;48.634;8.120;2022-07-21T10:41:48;47.28;;;42.47;;
16039;SDS011;8124;48.634;8.120;2022-07-21T10:47:02;46.80;;;42.00;;
16039;SDS011;8124;48.634;8.120;2022-07-21T10:52:13;47.25;;;42.42;;
16039;SDS011;8124;48.634;8.120;2022-07-21T11:03:28;46.85;;;41.97;;
16039;SDS011;8124;48.634;8.120;2022-07-21T11:08:34;47.08;;;42.15;;
16039;SDS011;8124;48.634;8.120;2022-07-21T11:19:02;46.30;;;41.60;;
16039;SDS011;8124;48.634;8.120;2022-07-21T11:24:05;46.22;;;41.55;;
16039;SDS011;8124;48.634;8.120;2022-07-21T11:29:08;47.05;;;42.25;;
16039;SDS011;8124;48.634;8.120;2022-07-21T11:34:14;47.35;;;42.47;;
16039;SDS011;8124;48.634;8.120;2022-07-21T11:39:17;46.63;;;41.90;;
16039;SDS011;8124;48.634;8.120;2022-07-21T11:44:24;46.97;;;42.13;;
16039;SDS011;8124;48.634;8.120;2022-07-21T11:49:29;46.47;;;41.78;;
16039;SDS011;8124;48.634;8.120;2022-07-21T11:54:34;46.38;;;41.67;;
16039;SDS011;8124;48.634;8.120;2022-07-21T11:59:38;46.75;;;42.05;;
16039;SDS011;8124;48.634;8.120;2022-07-21T12:04:44;46.80;;;42.00;;
16039;SDS011;8124;48.634;8.120;2022-07-21T12:09:49;46.75;;;42.05;;
16039;SDS011;8124;48.634;8.120;2022-07-21T12:14:53;46.45;;;41.75;;
16039;SDS011;8124;48.634;8.120;2022-07-21T12:20:05;46.70;;;41.88;;
16039;SDS011;8124;48.634;8.120;2022-07-21T12:25:08;46.75;;;41.85;;
16039;SDS011;8124;48.634;8.120;2022-07-21T12:35:39;46.22;;;41.45;;
16039;SDS011;8124;48.634;8.120;2022-07-21T12:40:44;46.67;;;41.92;;
16039;SDS011;8124;48.634;8.120;2022-07-21T12:46:09;46.17;;;41.45;;
16039;SDS011;8124;48.634;8.120;2022-07-21T12:51:21;45.92;;;41.30;;
16039;SDS011;8124;48.634;8.120;2022-07-21T12:56:27;46.20;;;41.40;;
16039;SDS011;8124;48.634;8.120;2022-07-21T13:01:31;46.83;;;42.05;;
16039;SDS011;8124;48.634;8.120;2022-07-21T13:06:37;45.95;;;41.35;;
16039;SDS011;8124;48.634;8.120;2022-07-21T13:11:40;46.42;;;41.63;;
16039;SDS011;8124;48.634;8.120;2022-07-21T13:16:43;46.75;;;41.95;;
16039;SDS011;8124;48.634;8.120;2022-07-21T13:21:47;46.00;;;41.28;;
16039;SDS011;8124;48.634;8.120;2022-07-21T13:26:50;46.47;;;41.47;;
16039;SDS011;8124;48.634;8.120;2022-07-21T13:31:53;46.65;;;41.88;;
16039;SDS011;8124;48.634;8.120;2022-07-21T13:36:58;46.78;;;42.08;;
16039;SDS011;8124;48.634;8.120;2022-07-21T13:42:00;46.72;;;41.92;;
16039;SDS011;8124;48.634;8.120;2022-07-21T13:47:23;46.55;;;41.75;;
16039;SDS011;8124;48.634;8.120;2022-07-21T13:52:28;46.72;;;41.97;;
16039;SDS011;8124;48.634;8.120;2022-07-21T13:57:31;46.70;;;41.75;;
16039;SDS011;8124;48.634;8.120;2022-07-21T14:02:34;46.85;;;42.17;;
16039;SDS011;8124;48.634;8.120;2022-07-21T14:07:38;46.90;;;42.20;;
16039;SDS011;8124;48.634;8.120;2022-07-21T14:12:41;47.63;;;42.92;;
16039;SDS011;8124;48.634;8.120;2022-07-21T14:17:44;45.90;;;41.25;;
16039;SDS011;8124;48.634;8.120;2022-07-21T14:22:49;47.50;;;42.53;;
16039;SDS011;8124;48.634;8.120;2022-07-21T14:27:52;47.10;;;42.40;;
16039;SDS011;8124;48.634;8.120;2022-07-21T14:32:56;46.88;;;42.08;;
16039;SDS011;8124;48.634;8.120;2022-07-21T14:38:01;46.63;;;41.92;;
16039;SDS011;8124;48.634;8.120;2022-07-21T14:43:04;47.55;;;42.58;;
16039;SDS011;8124;48.634;8.120;2022-07-21T14:48:08;47.28;;;42.55;;
16039;SDS011;8124;48.634;8.120;2022-07-21T14:53:12;46.85;;;42.15;;
16039;SDS011;8124;48.634;8.120;2022-07-21T14:58:15;46.55;;;41.88;;
16039;SDS011;8124;48.634;8.120;2022-07-21T15:03:18;47.75;;;42.85;;
16039;SDS011;8124;48.634;8.120;2022-07-21T15:08:22;46.85;;;42.22;;
16039;SDS011;8124;48.634;8.120;2022-07-21T15:13:25;46.70;;;41.90;;
16039;SDS011;8124;48.634;8.120;2022-07-21T15:18:30;46.88;;;42.17;;
16039;SDS011;8124;48.634;8.120;2022-07-21T15:23:34;47.92;;;42.92;;
16039;SDS011;8124;48.634;8.120;2022-07-21T15:28:37;47.25;;;42.35;;
16039;SDS011;8124;48.634;8.120;2022-07-21T15:33:40;47.10;;;42.20;;
16039;SDS011;8124;48.634;8.120;2022-07-21T15:38:45;47.35;;;42.55;;
16039;SDS011;8124;48.634;8.120;2022-07-21T15:43:48;47.58;;;42.67;;
16039;SDS011;8124;48.634;8.120;2022-07-21T15:48:55;48.30;;;43.30;;
16039;SDS011;8124;48.634;8.120;2022-07-21T15:53:59;47.85;;;42.95;;
16039;SDS011;8124;48.634;8.120;2022-07-21T15:59:02;47.80;;;42.92;;
16039;SDS011;8124;48.634;8.120;2022-07-21T16:04:22;47.42;;;42.72;;
16039;SDS011;8124;48.634;8.120;2022-07-21T16:09:28;47.75;;;42.65;;
16039;SDS011;8124;48.634;8.120;2022-07-21T16:14:32;47.58;;;42.83;;
16039;SDS011;8124;48.634;8.120;2022-07-21T16:19:35;47.22;;;42.53;;
16039;SDS011;8124;48.634;8.120;2022-07-21T16:24:40;47.45;;;42.65;;
16039;SDS011;8124;48.634;8.120;2022-07-21T16:29:43;47.67;;;42.97;;
16039;SDS011;8124;48.634;8.120;2022-07-21T16:34:46;47.28;;;42.50;;
16039;SDS011;8124;48.634;8.120;2022-07-21T16:39:50;47.10;;;42.42;;
16039;SDS011;8124;48.634;8.120;2022-07-21T16:44:53;47.60;;;42.80;;
16039;SDS011;8124;48.634;8.120;2022-07-21T16:49:57;47.53;;;42.80;;
16039;SDS011;8124;48.634;8.120;2022-07-21T16:55:01;48.22;;;43.22;;
16039;SDS011;8124;48.634;8.120;2022-07-21T17:00:05;47.35;;;42.58;;
16039;SDS011;8124;48.634;8.120;2022-07-21T17:05:14;48.03;;;43.15;;
16039;SDS011;8124;48.634;8.120;2022-07-21T17:10:19;47.70;;;42.92;;
16039;SDS011;8124;48.634;8.120;2022-07-21T17:15:23;47.75;;;43.00;;
16039;SDS011;8124;48.634;8.120;2022-07-21T17:20:27;47.78;;;42.97;;
16039;SDS011;8124;48.634;8.120;2022-07-21T17:25:31;47.70;;;42.80;;
16039;SDS011;8124;48.634;8.120;2022-07-21T17:30:34;48.00;;;43.13;;
16039;SDS011;8124;48.634;8.120;2022-07-21T17:35:39;47.85;;;43.00;;
16039;SDS011;8124;48.634;8.120;2022-07-21T17:40:43;47.65;;;42.67;;
16039;SDS011;8124;48.634;8.120;2022-07-21T17:45:46;48.60;;;43.53;;
16039;SDS011;8124;48.634;8.120;2022-07-21T17:50:59;47.72;;;42.92;;
16039;SDS011;8124;48.634;8.120;2022-07-21T17:56:04;48.28;;;43.38;;
16039;SDS011;8124;48.634;8.120;2022-07-21T18:01:10;48.05;;;43.17;;
16039;SDS011;8124;48.634;8.120;2022-07-21T18:06:15;48.03;;;43.13;;
16039;SDS011;8124;48.634;8.120;2022-07-21T18:11:19;48.25;;;43.45;;
16039;SDS011;8124;48.634;8.120;2022-07-21T18:16:24;48.40;;;43.40;;
16039;SDS011;8124;48.634;8.120;2022-07-21T18:21:28;48.08;;;43.28;;
16039;SDS011;8124;48.634;8.120;2022-07-21T18:26:32;47.53;;;42.83;;
16039;SDS011;8124;48.634;8.120;2022-07-21T18:31:35;47.63;;;42.92;;
16039;SDS011;8124;48.634;8.120;2022-07-21T18:36:38;48.50;;;43.53;;
16039;SDS011;8124;48.634;8.120;2022-07-21T18:41:42;48.17;;;43.38;;
16039;SDS011;8124;48.634;8.120;2022-07-21T18:46:45;47.72;;;43.03;;
16039;SDS011;8124;48.634;8.120;2022-07-21T18:51:48;48.22;;;43.42;;
16039;SDS011;8124;48.634;8.120;2022-07-21T18:56:53;48.20;;;43.30;;
16039;SDS011;8124;48.634;8.120;2022-07-21T19:01:56;48.83;;;43.65;;
16039;SDS011;8124;48.634;8.120;2022-07-21T19:07:00;48.03;;;43.00;;
16039;SDS011;8124;48.634;8.120;2022-07-21T19:12:34;47.67;;;42.97;;
16039;SDS011;8124;48.634;8.120;2022-07-21T19:17:37;48.42;;;43.53;;
16039;SDS011;8124;48.634;8.120;2022-07-21T19:22:40;48.75;;;43.65;;
16039;SDS011;8124;48.634;8.120;2022-07-21T19:27:45;48.05;;;43.15;;
16039;SDS011;8124;48.634;8.120;2022-07-21T19:32:47;48.30;;;43.47;;
16039;SDS011;8124;48.634;8.120;2022-07-21T19:37:50;47.63;;;42.92;;
16039;SDS011;8124;48.634;8.120;2022-07-21T19:42:55;47.58;;;42.88;;
16039;SDS011;8124;48.634;8.120;2022-07-21T19:47:59;47.97;;;43.08;;
16039;SDS011;8124;48.634;8.120;2022-07-21T19:53:03;47.85;;;43.05;;
16039;SDS011;8124;48.634;8.120;2022-07-21T19:58:07;47.55;;;42.75;;
16039;SDS011;8124;48.634;8.120;2022-07-21T20:03:11;47.95;;;43.15;;
16039;SDS011;8124;48.634;8.120;2022-07-21T20:08:14;48.20;;;43.28;;
16039;SDS011;8124;48.634;8.120;2022-07-21T20:13:18;47.55;;;42.67;;
16039;SDS011;8124;48.634;8.120;2022-07-21T20:18:22;48.70;;;43.75;;
16039;SDS011;8124;48.634;8.120;2022-07-21T20:23:25;47.88;;;42.88;;
16039;SDS011;8124;48.634;8.120;2022-07-21T20:28:29;48.30;;;43.40;;
16039;SDS011;8124;48.634;8.120;2022-07-21T20:33:32;47.38;;;42.65;;
16039;SDS011;8124;48.634;8.120;2022-07-21T20:38:37;47.95;;;43.03;;
16039;SDS011;8124;48.634;8.120;2022-07-21T20:43:42;48.35;;;43.17;;
16039;SDS011;8124;48.634;8.120;2022-07-21T20:48:45;47.67;;;42.88;;
16039;SDS011;8124;48.634;8.120;2022-07-21T20:53:49;50.50;;;45.50;;
16039;SDS011;8124;48.634;8.120;2022-07-21T20:58:53;47.65;;;42.85;;
16039;SDS011;8124;48.634;8.120;2022-07-21T21:03:56;47.70;;;42.80;;
16039;SDS011;8124;48.634;8.120;2022-07-21T21:08:59;48.20;;;43.30;;
16039;SDS011;8124;48.634;8.120;2022-07-21T21:14:03;47.83;;;42.90;;
16039;SDS011;8124;48.634;8.120;2022-07-21T21:19:06;47.55;;;42.65;;
16039;SDS011;8124;48.634;8.120;2022-07-21T21:24:09;46.85;;;42.17;;
16039;SDS011;8124;48.634;8.120;2022-07-21T21:29:15;48.20;;;43.25;;
16039;SDS011;8124;48.634;8.120;2022-07-21T21:34:18;47.03;;;42.30;;
16039;SDS011;8124;48.634;8.120;2022-07-21T21:39:26;47.97;;;42.88;;
16039;SDS011;8124;48.634;8.120;2022-07-21T21:44:31;47.65;;;42.72;;
16039;SDS011;8124;48.634;8.120;2022-07-21T21:49:34;47.42;;;42.58;;
16039;SDS011;8124;48.634;8.120;2022-07-21T21:54:37;47.13;;;42.22;;
16039;SDS011;8124;48.634;8.120;2022-07-21T21:59:41;47.75;;;42.85;;
16039;SDS011;8124;48.634;8.120;2022-07-21T22:04:44;47.72;;;42.90;;
16039;SDS011;8124;48.634;8.120;2022-07-21T22:09:47;47.72;;;42.72;;
16039;SDS011;8124;48.634;8.120;2022-07-21T22:14:52;47.75;;;42.67;;
16039;SDS011;8124;48.634;8.120;2022-07-21T22:19:55;48.00;;;43.10;;
16039;SDS011;8124;48.634;8.120;2022-07-21T22:24:58;47.13;;;42.20;;
16039;SDS011;8124;48.634;8.120;2022-07-21T22:30:02;47.05;;;42.33;;
16039;SDS011;8124;48.634;8.120;2022-07-21T22:35:07;46.88;;;42.08;;
16039;SDS011;8124;48.634;8.120;2022-07-21T22:40:11;47.40;;;42.55;;
16039;SDS011;8124;48.634;8.120;2022-07-21T22:45:15;47.40;;;42.50;;
16039;SDS011;8124;48.634;8.120;2022-07-21T22:50:18;47.40;;;42.47;;
16039;SDS011;8124;48.634;8.120;2022-07-21T22:55:21;47.83;;;42.92;;
16039;SDS011;8124;48.634;8.120;2022-07-21T23:00:26;47.65;;;42.78;;
16039;SDS011;8124;48.634;8.120;2022-07-21T23:05:30;47.75;;;42.75;;
16039;SDS011;8124;48.634;8.120;2022-07-21T23:10:33;48.00;;;42.90;;
16039;SDS011;8124;48.634;8.120;2022-07-21T23:15:38;47.83;;;42.95;;
16039;SDS011;8124;48.634;8.120;2022-07-21T23:20:41;48.03;;;43.03;;
16039;SDS011;8124;48.634;8.120;2022-07-21T23:25:44;47.67;;;42.67;;
16039;SDS011;8124;48.634;8.120;2022-07-21T23:30:48;47.88;;;42.67;;
16039;SDS011;8124;48.634;8.120;2022-07-21T23:35:51;46.88;;;42.10;;
16039;SDS011;8124;48.634;8.120;2022-07-21T23:40:54;47.25;;;42.47;;
16039;SDS011;8124;48.634;8.120;2022-07-21T23:45:58;46.50;;;41.67;;
16039;SDS011;8124;48.634;8.120;2022-07-21T23:51:01;47.58;;;42.70;;
16039;SDS011;8124;48.634;8.120;2022-07-21T23:56:04;47.65;;;42.88;;
